createdAt,value
2017-01-18T00:00:29.801Z,19.84
2017-01-18T00:01:30.221Z,19.81
2017-01-18T00:02:29.846Z,19.74
2017-01-18T00:03:29.875Z,19.76
2017-01-18T00:04:29.899Z,19.8
2017-01-18T00:05:29.924Z,19.77
2017-01-18T00:06:29.953Z,19.78
2017-01-18T00:07:30.368Z,19.76
2017-01-18T00:08:30.394Z,19.8
2017-01-18T00:09:29.635Z,19.69
2017-01-18T00:10:30.057Z,19.73
2017-01-18T00:11:29.685Z,19.71
2017-01-18T00:12:29.713Z,19.74
2017-01-18T00:13:30.134Z,19.68
2017-01-18T00:14:30.155Z,19.69
2017-01-18T00:15:30.201Z,19.74
2017-01-18T00:16:30.211Z,19.59
2017-01-18T00:17:30.637Z,19.63
2017-01-18T00:18:30.258Z,19.68
2017-01-18T00:19:30.287Z,19.58
2017-01-18T00:20:29.920Z,19.63
2017-01-18T00:21:29.953Z,19.65
2017-01-18T00:22:30.365Z,19.61
2017-01-18T00:23:30.390Z,19.68
2017-01-18T00:24:30.020Z,19.62
2017-01-18T00:25:30.840Z,19.48
2017-01-18T00:26:30.896Z,19.55
2017-01-18T00:27:30.889Z,19.48
2017-01-18T00:28:30.917Z,19.58
2017-01-18T00:29:30.147Z,19.5
2017-01-18T00:30:30.171Z,19.47
2017-01-18T00:31:30.204Z,19.51
2017-01-18T00:32:30.233Z,19.5
2017-01-18T00:33:30.657Z,19.44
2017-01-18T00:34:31.076Z,19.47
2017-01-18T00:35:30.700Z,19.44
2017-01-18T00:36:30.728Z,19.43
2017-01-18T00:37:31.148Z,19.46
2017-01-18T00:38:30.777Z,19.43
2017-01-18T00:39:30.802Z,19.47
2017-01-18T00:40:30.838Z,19.36
2017-01-18T00:41:30.456Z,19.47
2017-01-18T00:42:30.889Z,19.47
2017-01-18T00:43:30.508Z,19.41
2017-01-18T00:44:30.930Z,19.43
2017-01-18T00:45:31.347Z,19.44
2017-01-18T00:46:30.980Z,19.44
2017-01-18T00:47:31.012Z,19.44
2017-01-18T00:48:31.045Z,19.39
2017-01-18T00:49:31.057Z,19.4
2017-01-18T00:50:30.686Z,19.33
2017-01-18T00:51:31.106Z,19.33
2017-01-18T00:52:31.139Z,19.39
2017-01-18T00:53:31.161Z,19.32
2017-01-18T00:54:31.581Z,19.33
2017-01-18T00:55:31.610Z,19.29
2017-01-18T00:56:30.838Z,19.37
2017-01-18T00:57:30.864Z,19.26
2017-01-18T00:58:31.304Z,19.29
2017-01-18T00:59:30.917Z,19.31
2017-01-18T01:00:31.342Z,19.32
2017-01-18T01:01:31.367Z,19.26
2017-01-18T01:02:31.389Z,19.31
2017-01-18T01:03:31.812Z,19.14
2017-01-18T01:04:31.837Z,19.18
2017-01-18T01:05:31.869Z,19.23
2017-01-18T01:06:31.494Z,19.19
2017-01-18T01:07:31.519Z,19.21
2017-01-18T01:08:31.144Z,19.16
2017-01-18T01:09:31.565Z,19.19
2017-01-18T01:10:31.201Z,19.31
2017-01-18T01:11:32.026Z,19.19
2017-01-18T01:12:31.246Z,19.13
2017-01-18T01:13:31.672Z,19.14
2017-01-18T01:14:31.723Z,19.16
2017-01-18T01:15:32.125Z,19.16
2017-01-18T01:16:31.353Z,19.23
2017-01-18T01:17:32.170Z,19.21
2017-01-18T01:18:32.199Z,19.18
2017-01-18T01:19:31.820Z,19.16
2017-01-18T01:20:32.244Z,19.22
2017-01-18T01:21:31.885Z,19.11
2017-01-18T01:22:32.301Z,19.23
2017-01-18T01:23:31.526Z,19.13
2017-01-18T01:24:31.555Z,19.14
2017-01-18T01:25:31.576Z,19.13
2017-01-18T01:26:31.609Z,19.16
2017-01-18T01:27:31.633Z,19.18
2017-01-18T01:28:32.082Z,19.14
2017-01-18T01:29:32.470Z,19.07
2017-01-18T01:30:32.500Z,19.1
2017-01-18T01:31:32.516Z,19.13
2017-01-18T01:32:31.789Z,19.08
2017-01-18T01:33:31.782Z,19.06
2017-01-18T01:34:32.202Z,19.06
2017-01-18T01:35:32.231Z,19.1
2017-01-18T01:36:32.256Z,19.13
2017-01-18T01:37:32.285Z,19.11
2017-01-18T01:38:32.701Z,19.08
2017-01-18T01:39:32.730Z,19.19
2017-01-18T01:40:31.962Z,19.07
2017-01-18T01:41:32.374Z,19.08
2017-01-18T01:42:32.011Z,19.06
2017-01-18T01:43:32.037Z,19
2017-01-18T01:44:32.065Z,19.04
2017-01-18T01:45:32.090Z,19.06
2017-01-18T01:46:32.511Z,19
2017-01-18T01:47:32.537Z,19.1
2017-01-18T01:48:32.564Z,19
2017-01-18T01:49:32.193Z,18.98
2017-01-18T01:50:32.609Z,18.99
2017-01-18T01:51:32.638Z,19.02
2017-01-18T01:52:32.654Z,19
2017-01-18T01:53:32.288Z,18.92
2017-01-18T01:54:32.317Z,19.06
2017-01-18T01:55:32.342Z,19.04
2017-01-18T01:56:32.762Z,18.95
2017-01-18T01:57:33.191Z,18.91
2017-01-18T01:58:32.419Z,18.95
2017-01-18T01:59:32.840Z,18.98
2017-01-18T02:00:32.869Z,18.98
2017-01-18T02:01:33.285Z,18.99
2017-01-18T02:02:32.914Z,18.95
2017-01-18T02:03:32.947Z,18.99
2017-01-18T02:04:33.367Z,18.98
2017-01-18T02:05:32.596Z,18.9
2017-01-18T02:06:32.621Z,18.91
2017-01-18T02:07:33.046Z,18.92
2017-01-18T02:08:33.066Z,18.98
2017-01-18T02:09:32.691Z,18.94
2017-01-18T02:10:33.116Z,18.9
2017-01-18T02:11:33.145Z,18.91
2017-01-18T02:12:33.569Z,18.88
2017-01-18T02:13:33.586Z,18.88
2017-01-18T02:14:33.218Z,18.9
2017-01-18T02:15:33.239Z,18.92
2017-01-18T02:16:32.863Z,18.95
2017-01-18T02:17:32.901Z,18.88
2017-01-18T02:18:32.925Z,18.91
2017-01-18T02:19:33.738Z,18.9
2017-01-18T02:20:32.967Z,18.9
2017-01-18T02:21:33.395Z,18.9
2017-01-18T02:22:33.812Z,18.88
2017-01-18T02:23:33.837Z,18.81
2017-01-18T02:24:33.869Z,18.87
2017-01-18T02:25:33.498Z,18.92
2017-01-18T02:26:33.123Z,18.81
2017-01-18T02:27:33.152Z,18.76
2017-01-18T02:28:33.175Z,18.73
2017-01-18T02:29:33.625Z,18.88
2017-01-18T02:30:33.626Z,18.84
2017-01-18T02:31:34.044Z,18.76
2017-01-18T02:32:33.275Z,18.91
2017-01-18T02:33:33.303Z,18.78
2017-01-18T02:34:34.121Z,18.81
2017-01-18T02:35:33.740Z,18.88
2017-01-18T02:36:33.778Z,18.73
2017-01-18T02:37:33.401Z,18.76
2017-01-18T02:38:33.823Z,18.8
2017-01-18T02:39:33.852Z,18.85
2017-01-18T02:40:33.872Z,18.85
2017-01-18T02:41:33.905Z,18.78
2017-01-18T02:42:33.929Z,18.75
2017-01-18T02:43:33.950Z,18.75
2017-01-18T02:44:33.971Z,18.82
2017-01-18T02:45:33.607Z,18.8
2017-01-18T02:46:34.029Z,18.87
2017-01-18T02:47:34.054Z,18.82
2017-01-18T02:48:34.074Z,18.82
2017-01-18T02:49:33.702Z,18.76
2017-01-18T02:50:34.127Z,18.76
2017-01-18T02:51:34.152Z,18.78
2017-01-18T02:52:34.571Z,18.81
2017-01-18T02:53:33.809Z,18.76
2017-01-18T02:54:34.231Z,18.76
2017-01-18T02:55:34.246Z,18.73
2017-01-18T02:56:34.275Z,18.81
2017-01-18T02:57:34.304Z,18.81
2017-01-18T02:58:34.329Z,18.73
2017-01-18T02:59:33.953Z,18.73
2017-01-18T03:00:33.978Z,18.76
2017-01-18T03:01:34.403Z,18.72
2017-01-18T03:02:34.832Z,18.72
2017-01-18T03:03:34.461Z,18.72
2017-01-18T03:04:34.517Z,18.72
2017-01-18T03:05:34.505Z,18.72
2017-01-18T03:06:34.527Z,18.69
2017-01-18T03:07:34.559Z,18.75
2017-01-18T03:08:34.584Z,18.7
2017-01-18T03:09:35.000Z,18.75
2017-01-18T03:10:35.042Z,18.66
2017-01-18T03:11:34.666Z,18.7
2017-01-18T03:12:35.078Z,18.73
2017-01-18T03:13:34.711Z,18.72
2017-01-18T03:14:34.332Z,18.65
2017-01-18T03:15:35.161Z,18.72
2017-01-18T03:16:34.385Z,18.62
2017-01-18T03:17:34.805Z,18.67
2017-01-18T03:18:34.831Z,18.67
2017-01-18T03:19:34.464Z,18.66
2017-01-18T03:20:35.280Z,18.69
2017-01-18T03:21:35.305Z,18.6
2017-01-18T03:22:35.329Z,18.69
2017-01-18T03:23:34.559Z,18.62
2017-01-18T03:24:34.587Z,18.62
2017-01-18T03:25:35.012Z,18.6
2017-01-18T03:26:34.628Z,18.67
2017-01-18T03:27:35.457Z,18.66
2017-01-18T03:28:35.473Z,18.58
2017-01-18T03:29:35.530Z,18.62
2017-01-18T03:30:34.735Z,18.63
2017-01-18T03:31:34.772Z,18.57
2017-01-18T03:32:34.790Z,18.62
2017-01-18T03:33:34.816Z,18.63
2017-01-18T03:34:35.642Z,18.6
2017-01-18T03:35:35.259Z,18.62
2017-01-18T03:36:34.883Z,18.7
2017-01-18T03:37:35.304Z,18.72
2017-01-18T03:38:34.940Z,18.6
2017-01-18T03:39:34.967Z,18.6
2017-01-18T03:40:34.985Z,18.62
2017-01-18T03:41:35.806Z,18.58
2017-01-18T03:42:35.427Z,18.62
2017-01-18T03:43:35.068Z,18.66
2017-01-18T03:44:35.481Z,18.66
2017-01-18T03:45:35.109Z,18.58
2017-01-18T03:46:35.134Z,18.55
2017-01-18T03:47:35.946Z,18.5
2017-01-18T03:48:35.187Z,18.58
2017-01-18T03:49:35.616Z,18.65
2017-01-18T03:50:35.637Z,18.55
2017-01-18T03:51:36.041Z,18.45
2017-01-18T03:52:35.686Z,18.5
2017-01-18T03:53:35.715Z,18.42
2017-01-18T03:54:35.346Z,18.45
2017-01-18T03:55:35.756Z,18.5
2017-01-18T03:56:35.385Z,18.51
2017-01-18T03:57:35.810Z,18.52
2017-01-18T03:58:36.226Z,18.54
2017-01-18T03:59:36.255Z,18.47
2017-01-18T04:00:36.280Z,18.45
2017-01-18T04:01:35.904Z,18.5
2017-01-18T04:02:35.936Z,18.52
2017-01-18T04:03:35.566Z,18.52
2017-01-18T04:04:35.591Z,18.47
2017-01-18T04:05:36.011Z,18.42
2017-01-18T04:06:36.036Z,18.51
2017-01-18T04:07:36.489Z,18.48
2017-01-18T04:08:36.085Z,18.47
2017-01-18T04:09:35.718Z,18.48
2017-01-18T04:10:36.138Z,18.48
2017-01-18T04:11:36.564Z,18.55
2017-01-18T04:12:35.788Z,18.42
2017-01-18T04:13:36.213Z,18.48
2017-01-18T04:14:35.842Z,18.44
2017-01-18T04:15:36.258Z,18.42
2017-01-18T04:16:36.683Z,18.42
2017-01-18T04:17:36.707Z,18.44
2017-01-18T04:18:36.331Z,18.47
2017-01-18T04:19:35.967Z,18.41
2017-01-18T04:20:36.383Z,18.5
2017-01-18T04:21:36.441Z,18.47
2017-01-18T04:22:36.834Z,18.44
2017-01-18T04:23:36.062Z,18.37
2017-01-18T04:24:36.480Z,18.47
2017-01-18T04:25:36.912Z,18.41
2017-01-18T04:26:36.927Z,18.44
2017-01-18T04:27:36.564Z,18.37
2017-01-18T04:28:36.585Z,18.37
2017-01-18T04:29:37.001Z,18.37
2017-01-18T04:30:37.030Z,18.45
2017-01-18T04:31:36.271Z,18.37
2017-01-18T04:32:36.715Z,18.44
2017-01-18T04:33:37.104Z,18.44
2017-01-18T04:34:36.732Z,18.39
2017-01-18T04:35:36.756Z,18.41
2017-01-18T04:36:36.774Z,18.41
2017-01-18T04:37:36.411Z,18.39
2017-01-18T04:38:36.439Z,18.41
2017-01-18T04:39:36.459Z,18.42
2017-01-18T04:40:37.280Z,18.36
2017-01-18T04:41:36.909Z,18.35
2017-01-18T04:42:36.933Z,18.33
2017-01-18T04:43:37.358Z,18.37
2017-01-18T04:44:36.587Z,18.33
2017-01-18T04:45:36.608Z,18.42
2017-01-18T04:46:36.637Z,18.36
2017-01-18T04:47:36.659Z,18.35
2017-01-18T04:48:36.686Z,18.33
2017-01-18T04:49:37.502Z,18.33
2017-01-18T04:50:37.123Z,18.37
2017-01-18T04:51:36.763Z,18.33
2017-01-18T04:52:37.185Z,18.36
2017-01-18T04:53:37.229Z,18.29
2017-01-18T04:54:37.230Z,18.29
2017-01-18T04:55:36.858Z,18.27
2017-01-18T04:56:36.887Z,18.33
2017-01-18T04:57:37.704Z,18.33
2017-01-18T04:58:37.724Z,18.32
2017-01-18T04:59:37.357Z,18.36
2017-01-18T05:00:37.382Z,18.33
2017-01-18T05:01:37.010Z,18.25
2017-01-18T05:02:37.028Z,18.32
2017-01-18T05:03:37.452Z,18.29
2017-01-18T05:04:37.888Z,18.3
2017-01-18T05:05:37.893Z,18.29
2017-01-18T05:06:37.134Z,18.33
2017-01-18T05:07:37.943Z,18.29
2017-01-18T05:08:37.583Z,18.3
2017-01-18T05:09:37.208Z,18.26
2017-01-18T05:10:37.629Z,18.25
2017-01-18T05:11:37.660Z,18.29
2017-01-18T05:12:38.078Z,18.29
2017-01-18T05:13:37.702Z,18.3
2017-01-18T05:14:37.731Z,18.21
2017-01-18T05:15:37.360Z,18.27
2017-01-18T05:16:37.777Z,18.27
2017-01-18T05:17:37.417Z,18.2
2017-01-18T05:18:37.430Z,18.23
2017-01-18T05:19:37.855Z,18.23
2017-01-18T05:20:37.879Z,18.23
2017-01-18T05:21:38.296Z,18.25
2017-01-18T05:22:37.528Z,18.25
2017-01-18T05:23:37.954Z,18.27
2017-01-18T05:24:38.376Z,18.26
2017-01-18T05:25:37.603Z,18.26
2017-01-18T05:26:37.631Z,18.27
2017-01-18T05:27:37.660Z,18.29
2017-01-18T05:28:38.081Z,18.29
2017-01-18T05:29:38.101Z,18.35
2017-01-18T05:30:38.527Z,18.29
2017-01-18T05:31:37.759Z,18.36
2017-01-18T05:32:38.180Z,18.35
2017-01-18T05:33:37.815Z,18.42
2017-01-18T05:34:38.225Z,18.44
2017-01-18T05:35:37.854Z,18.44
2017-01-18T05:36:38.675Z,18.44
2017-01-18T05:37:38.699Z,18.5
2017-01-18T05:38:38.724Z,18.5
2017-01-18T05:39:38.425Z,18.47
2017-01-18T05:40:38.373Z,18.48
2017-01-18T05:41:38.014Z,18.52
2017-01-18T05:42:38.823Z,18.55
2017-01-18T05:43:38.460Z,18.6
2017-01-18T05:44:38.485Z,18.63
2017-01-18T05:45:38.898Z,18.66
2017-01-18T05:46:38.526Z,18.72
2017-01-18T05:47:38.151Z,18.6
2017-01-18T05:48:38.580Z,18.72
2017-01-18T05:49:38.604Z,18.8
2017-01-18T05:50:38.627Z,18.8
2017-01-18T05:51:39.050Z,18.87
2017-01-18T05:52:38.283Z,18.78
2017-01-18T05:53:39.100Z,18.8
2017-01-18T05:54:38.724Z,18.81
2017-01-18T05:55:39.157Z,18.9
2017-01-18T05:56:39.178Z,18.95
2017-01-18T05:57:38.806Z,18.9
2017-01-18T05:58:38.432Z,18.98
2017-01-18T05:59:38.856Z,18.98
2017-01-18T06:00:38.881Z,19
2017-01-18T06:01:38.905Z,19.04
2017-01-18T06:02:39.323Z,19.08
2017-01-18T06:03:38.955Z,19.11
2017-01-18T06:04:38.583Z,19.06
2017-01-18T06:05:38.608Z,19.18
2017-01-18T06:06:38.641Z,19.13
2017-01-18T06:07:38.662Z,19.11
2017-01-18T06:08:39.083Z,19.11
2017-01-18T06:09:39.107Z,19.19
2017-01-18T06:10:39.132Z,19.18
2017-01-18T06:11:39.556Z,19.11
2017-01-18T06:12:39.174Z,19.16
2017-01-18T06:13:39.219Z,19.18
2017-01-18T06:14:39.236Z,19.16
2017-01-18T06:15:39.260Z,19.14
2017-01-18T06:16:39.293Z,19.28
2017-01-18T06:17:39.309Z,19.22
2017-01-18T06:18:39.726Z,19.21
2017-01-18T06:19:39.364Z,19.33
2017-01-18T06:20:39.000Z,19.31
2017-01-18T06:21:39.806Z,19.29
2017-01-18T06:22:39.437Z,19.28
2017-01-18T06:23:39.466Z,19.28
2017-01-18T06:24:39.091Z,19.32
2017-01-18T06:25:39.908Z,19.43
2017-01-18T06:26:39.140Z,19.4
2017-01-18T06:27:39.564Z,19.36
2017-01-18T06:28:39.590Z,19.41
2017-01-18T06:29:40.007Z,19.44
2017-01-18T06:30:40.031Z,19.43
2017-01-18T06:31:39.663Z,19.43
2017-01-18T06:32:39.297Z,19.44
2017-01-18T06:33:39.702Z,19.48
2017-01-18T06:34:39.738Z,19.43
2017-01-18T06:35:39.371Z,19.4
2017-01-18T06:36:39.388Z,19.44
2017-01-18T06:37:39.817Z,19.5
2017-01-18T06:38:39.846Z,19.46
2017-01-18T06:39:39.870Z,19.41
2017-01-18T06:40:39.495Z,19.48
2017-01-18T06:41:39.920Z,19.43
2017-01-18T06:42:39.543Z,19.43
2017-01-18T06:43:39.993Z,19.43
2017-01-18T06:44:40.387Z,19.46
2017-01-18T06:45:39.619Z,19.46
2017-01-18T06:46:39.648Z,19.5
2017-01-18T06:47:40.461Z,19.48
2017-01-18T06:48:40.090Z,19.51
2017-01-18T06:49:40.515Z,19.43
2017-01-18T06:50:40.147Z,19.48
2017-01-18T06:51:40.171Z,19.46
2017-01-18T06:52:39.797Z,19.58
2017-01-18T06:53:40.221Z,19.48
2017-01-18T06:54:40.242Z,19.47
2017-01-18T06:55:40.675Z,19.47
2017-01-18T06:56:40.693Z,19.48
2017-01-18T06:57:40.320Z,19.44
2017-01-18T06:58:40.345Z,19.5
2017-01-18T06:59:40.374Z,19.41
2017-01-18T07:00:40.407Z,19.47
2017-01-18T07:01:40.820Z,19.51
2017-01-18T07:02:40.453Z,19.43
2017-01-18T07:03:40.477Z,19.48
2017-01-18T07:04:40.499Z,19.46
2017-01-18T07:05:40.928Z,19.47
2017-01-18T07:06:40.552Z,19.46
2017-01-18T07:07:40.576Z,19.4
2017-01-18T07:08:40.229Z,19.41
2017-01-18T07:09:40.629Z,19.48
2017-01-18T07:10:40.250Z,19.46
2017-01-18T07:11:40.675Z,19.46
2017-01-18T07:12:40.309Z,19.48
2017-01-18T07:13:40.733Z,19.43
2017-01-18T07:14:40.358Z,19.46
2017-01-18T07:15:41.179Z,19.46
2017-01-18T07:16:41.200Z,19.48
2017-01-18T07:17:40.832Z,19.5
2017-01-18T07:18:40.464Z,19.48
2017-01-18T07:19:40.489Z,19.55
2017-01-18T07:20:40.911Z,19.51
2017-01-18T07:21:40.543Z,19.54
2017-01-18T07:22:40.957Z,19.56
2017-01-18T07:23:40.592Z,19.5
2017-01-18T07:24:40.617Z,19.54
2017-01-18T07:25:41.430Z,19.44
2017-01-18T07:26:41.059Z,19.51
2017-01-18T07:27:41.083Z,19.54
2017-01-18T07:28:41.511Z,19.63
2017-01-18T07:29:41.132Z,19.62
2017-01-18T07:30:40.774Z,19.62
2017-01-18T07:31:40.791Z,19.62
2017-01-18T07:32:41.211Z,19.59
2017-01-18T07:33:41.636Z,19.62
2017-01-18T07:34:41.265Z,19.58
2017-01-18T07:35:41.297Z,19.5
2017-01-18T07:36:41.719Z,19.61
2017-01-18T07:37:40.947Z,19.51
2017-01-18T07:38:41.364Z,19.5
2017-01-18T07:39:41.419Z,19.44
2017-01-18T07:40:41.030Z,19.47
2017-01-18T07:41:41.050Z,19.47
2017-01-18T07:42:41.867Z,19.5
2017-01-18T07:43:41.891Z,19.5
2017-01-18T07:44:41.916Z,19.5
2017-01-18T07:45:41.549Z,19.51
2017-01-18T07:46:41.970Z,19.51
2017-01-18T07:47:41.591Z,19.47
2017-01-18T07:48:42.019Z,19.51
2017-01-18T07:49:41.652Z,19.5
2017-01-18T07:50:41.277Z,19.5
2017-01-18T07:51:42.098Z,19.59
2017-01-18T07:52:41.718Z,19.47
2017-01-18T07:53:42.147Z,19.48
2017-01-18T07:54:41.383Z,19.43
2017-01-18T07:55:42.216Z,19.43
2017-01-18T07:56:41.429Z,19.47
2017-01-18T07:57:41.458Z,19.46
2017-01-18T07:58:41.483Z,19.43
2017-01-18T07:59:42.296Z,19.44
2017-01-18T08:00:41.932Z,19.43
2017-01-18T08:01:41.957Z,19.46
2017-01-18T08:02:42.374Z,19.46
2017-01-18T08:03:42.007Z,19.43
2017-01-18T08:04:42.036Z,19.43
2017-01-18T08:05:42.091Z,19.4
2017-01-18T08:06:41.688Z,19.4
2017-01-18T08:07:41.709Z,19.4
2017-01-18T08:08:41.738Z,19.37
2017-01-18T08:09:42.155Z,19.39
2017-01-18T08:10:41.791Z,19.44
2017-01-18T08:11:42.225Z,19.43
2017-01-18T08:12:42.629Z,19.44
2017-01-18T08:13:41.858Z,19.39
2017-01-18T08:14:42.677Z,19.39
2017-01-18T08:15:42.703Z,19.36
2017-01-18T08:16:42.340Z,19.33
2017-01-18T08:17:41.967Z,19.33
2017-01-18T08:18:42.783Z,19.33
2017-01-18T08:19:42.414Z,19.36
2017-01-18T08:20:42.443Z,19.32
2017-01-18T08:21:42.468Z,19.37
2017-01-18T08:22:42.488Z,19.26
2017-01-18T08:23:42.516Z,19.33
2017-01-18T08:24:42.146Z,19.26
2017-01-18T08:25:42.558Z,19.36
2017-01-18T08:26:42.227Z,19.36
2017-01-18T08:27:42.620Z,19.36
2017-01-18T08:28:42.644Z,19.18
2017-01-18T08:29:43.066Z,19.26
2017-01-18T08:30:43.090Z,19.31
2017-01-18T08:31:42.715Z,19.26
2017-01-18T08:32:43.143Z,19.22
2017-01-18T08:33:42.764Z,19.19
2017-01-18T08:34:42.397Z,19.33
2017-01-18T08:35:42.817Z,19.19
2017-01-18T08:36:42.843Z,19.21
2017-01-18T08:37:42.871Z,19.29
2017-01-18T08:38:42.924Z,19.23
2017-01-18T08:39:43.333Z,19.14
2017-01-18T08:40:42.946Z,19.21
2017-01-18T08:41:42.978Z,19.18
2017-01-18T08:42:43.003Z,19.21
2017-01-18T08:43:42.628Z,19.16
2017-01-18T08:44:42.657Z,19.19
2017-01-18T08:45:42.686Z,19.14
2017-01-18T08:46:43.103Z,19.19
2017-01-18T08:47:43.523Z,19.16
2017-01-18T08:48:43.559Z,19.22
2017-01-18T08:49:43.184Z,19.14
2017-01-18T08:50:42.806Z,19.13
2017-01-18T08:51:42.829Z,19.14
2017-01-18T08:52:43.254Z,19.23
2017-01-18T08:53:43.271Z,19.19
2017-01-18T08:54:43.700Z,19.18
2017-01-18T08:55:43.729Z,19.13
2017-01-18T08:56:43.368Z,19.13
2017-01-18T08:57:43.377Z,19.19
2017-01-18T08:58:43.807Z,19.18
2017-01-18T08:59:43.832Z,19.11
2017-01-18T09:00:43.461Z,19.07
2017-01-18T09:01:43.881Z,19.14
2017-01-18T09:02:43.109Z,19.16
2017-01-18T09:03:43.533Z,19.07
2017-01-18T09:04:43.956Z,19.14
2017-01-18T09:05:43.189Z,19.21
2017-01-18T09:06:43.216Z,19.11
2017-01-18T09:07:43.262Z,19.16
2017-01-18T09:08:43.258Z,19.14
2017-01-18T09:09:43.683Z,19.11
2017-01-18T09:10:44.108Z,19.23
2017-01-18T09:11:43.728Z,19.14
2017-01-18T09:12:43.789Z,19.14
2017-01-18T09:13:44.182Z,19.21
2017-01-18T09:14:43.811Z,19.22
2017-01-18T09:15:44.263Z,19.26
2017-01-18T09:16:43.859Z,19.28
2017-01-18T09:17:44.285Z,19.25
2017-01-18T09:18:43.526Z,19.33
2017-01-18T09:19:43.936Z,19.25
2017-01-18T09:20:43.574Z,19.29
2017-01-18T09:21:43.989Z,19.32
2017-01-18T09:22:44.016Z,19.36
2017-01-18T09:23:43.646Z,19.33
2017-01-18T09:24:43.674Z,19.4
2017-01-18T09:25:44.103Z,19.32
2017-01-18T09:26:44.127Z,19.39
2017-01-18T09:27:44.141Z,19.44
2017-01-18T09:28:44.567Z,19.43
2017-01-18T09:29:44.590Z,19.43
2017-01-18T09:30:44.633Z,19.41
2017-01-18T09:31:43.847Z,19.47
2017-01-18T09:32:44.675Z,19.5
2017-01-18T09:33:43.908Z,19.46
2017-01-18T09:34:43.921Z,19.56
2017-01-18T09:35:44.349Z,19.56
2017-01-18T09:36:43.978Z,19.54
2017-01-18T09:37:44.789Z,19.5
2017-01-18T09:38:44.827Z,19.46
2017-01-18T09:39:44.055Z,19.65
2017-01-18T09:40:44.476Z,19.65
2017-01-18T09:41:44.117Z,19.63
2017-01-18T09:42:44.920Z,19.65
2017-01-18T09:43:44.157Z,19.65
2017-01-18T09:44:44.980Z,19.62
2017-01-18T09:45:45.000Z,19.62
2017-01-18T09:46:45.023Z,19.66
2017-01-18T09:47:44.252Z,19.65
2017-01-18T09:48:45.088Z,19.63
2017-01-18T09:49:44.705Z,19.76
2017-01-18T09:50:44.334Z,19.68
2017-01-18T09:51:44.755Z,19.68
2017-01-18T09:52:44.383Z,19.71
2017-01-18T09:53:45.204Z,19.69
2017-01-18T09:54:45.228Z,19.71
2017-01-18T09:55:44.853Z,19.71
2017-01-18T09:56:44.881Z,19.65
2017-01-18T09:57:44.910Z,19.8
2017-01-18T09:58:45.331Z,19.77
2017-01-18T09:59:44.988Z,19.73
2017-01-18T10:00:44.993Z,19.68
2017-01-18T10:01:45.014Z,19.68
2017-01-18T10:02:44.643Z,19.71
2017-01-18T10:03:45.071Z,19.74
2017-01-18T10:04:45.104Z,19.69
2017-01-18T10:05:44.720Z,19.71
2017-01-18T10:06:45.141Z,19.71
2017-01-18T10:07:45.166Z,19.63
2017-01-18T10:08:45.192Z,19.68
2017-01-18T10:09:45.608Z,19.65
2017-01-18T10:10:44.849Z,19.74
2017-01-18T10:11:45.665Z,19.69
2017-01-18T10:12:44.893Z,19.71
2017-01-18T10:13:46.022Z,19.69
2017-01-18T10:14:44.946Z,19.66
2017-01-18T10:15:45.766Z,19.62
2017-01-18T10:16:45.008Z,19.65
2017-01-18T10:17:45.822Z,19.62
2017-01-18T10:18:45.450Z,19.65
2017-01-18T10:19:45.871Z,19.56
2017-01-18T10:20:45.103Z,19.58
2017-01-18T10:21:45.524Z,19.58
2017-01-18T10:22:45.180Z,19.58
2017-01-18T10:23:45.584Z,19.47
2017-01-18T10:24:45.598Z,19.5
2017-01-18T10:25:46.023Z,19.51
2017-01-18T10:26:45.656Z,19.61
2017-01-18T10:27:45.685Z,19.48
2017-01-18T10:28:46.093Z,19.46
2017-01-18T10:29:45.338Z,19.48
2017-01-18T10:30:45.755Z,19.51
2017-01-18T10:31:45.386Z,19.48
2017-01-18T10:32:45.809Z,19.43
2017-01-18T10:33:46.225Z,19.5
2017-01-18T10:34:46.254Z,19.51
2017-01-18T10:35:45.894Z,19.51
2017-01-18T10:36:45.912Z,19.51
2017-01-18T10:37:45.536Z,19.51
2017-01-18T10:38:45.961Z,19.46
2017-01-18T10:39:45.594Z,19.5
2017-01-18T10:40:45.617Z,19.48
2017-01-18T10:41:46.039Z,19.5
2017-01-18T10:42:46.072Z,19.47
2017-01-18T10:43:46.489Z,19.44
2017-01-18T10:44:45.716Z,19.47
2017-01-18T10:45:46.570Z,19.51
2017-01-18T10:46:45.767Z,19.48
2017-01-18T10:47:46.196Z,19.65
2017-01-18T10:48:45.821Z,19.56
2017-01-18T10:49:46.641Z,19.61
2017-01-18T10:50:46.673Z,19.5
2017-01-18T10:51:46.295Z,19.55
2017-01-18T10:52:46.323Z,19.51
2017-01-18T10:53:46.348Z,19.63
2017-01-18T10:54:45.981Z,19.61
2017-01-18T10:55:46.402Z,19.5
2017-01-18T10:56:46.038Z,19.51
2017-01-18T10:57:46.059Z,19.59
2017-01-18T10:58:46.868Z,19.48
2017-01-18T10:59:46.509Z,19.46
2017-01-18T11:00:46.560Z,19.58
2017-01-18T11:01:46.566Z,19.59
2017-01-18T11:02:46.579Z,19.5
2017-01-18T11:03:46.611Z,19.48
2017-01-18T11:04:46.236Z,19.54
2017-01-18T11:05:46.260Z,19.51
2017-01-18T11:06:46.686Z,19.51
2017-01-18T11:07:47.111Z,19.58
2017-01-18T11:08:47.127Z,19.43
2017-01-18T11:09:46.760Z,19.43
2017-01-18T11:10:46.390Z,19.46
2017-01-18T11:11:46.805Z,19.48
2017-01-18T11:12:46.838Z,19.54
2017-01-18T11:13:46.863Z,19.5
2017-01-18T11:14:46.887Z,19.39
2017-01-18T11:15:47.312Z,19.4
2017-01-18T11:16:46.545Z,19.44
2017-01-18T11:17:46.573Z,19.43
2017-01-18T11:18:46.990Z,19.4
2017-01-18T11:19:46.619Z,19.43
2017-01-18T11:20:46.645Z,19.46
2017-01-18T11:21:47.072Z,19.4
2017-01-18T11:22:47.490Z,19.47
2017-01-18T11:23:47.510Z,19.47
2017-01-18T11:24:47.146Z,19.41
2017-01-18T11:25:47.167Z,19.47
2017-01-18T11:26:46.796Z,19.47
2017-01-18T11:27:47.220Z,19.43
2017-01-18T11:28:47.249Z,19.41
2017-01-18T11:29:47.275Z,19.44
2017-01-18T11:30:47.299Z,19.41
2017-01-18T11:31:47.328Z,19.46
2017-01-18T11:32:47.749Z,19.41
2017-01-18T11:33:47.777Z,19.43
2017-01-18T11:34:47.005Z,19.46
2017-01-18T11:35:47.039Z,19.47
2017-01-18T11:36:47.055Z,19.56
2017-01-18T11:37:47.472Z,19.56
2017-01-18T11:38:47.501Z,19.47
2017-01-18T11:39:47.934Z,19.55
2017-01-18T11:40:47.558Z,19.48
2017-01-18T11:41:47.583Z,19.48
2017-01-18T11:42:47.212Z,19.51
2017-01-18T11:43:47.633Z,19.51
2017-01-18T11:44:48.057Z,19.56
2017-01-18T11:45:47.298Z,19.54
2017-01-18T11:46:48.111Z,19.61
2017-01-18T11:47:48.136Z,19.62
2017-01-18T11:48:48.169Z,19.62
2017-01-18T11:49:48.181Z,19.58
2017-01-18T11:50:47.807Z,19.62
2017-01-18T11:51:47.446Z,19.65
2017-01-18T11:52:47.863Z,19.63
2017-01-18T11:53:47.892Z,19.62
2017-01-18T11:54:48.313Z,19.63
2017-01-18T11:55:48.334Z,19.62
2017-01-18T11:56:48.367Z,19.63
2017-01-18T11:57:47.596Z,19.65
2017-01-18T11:58:48.419Z,19.59
2017-01-18T11:59:48.441Z,19.63
2017-01-18T12:00:47.677Z,19.62
2017-01-18T12:01:48.502Z,19.62
2017-01-18T12:02:48.118Z,19.61
2017-01-18T12:03:48.147Z,19.54
2017-01-18T12:04:48.177Z,19.66
2017-01-18T12:05:47.800Z,19.61
2017-01-18T12:06:48.221Z,19.62
2017-01-18T12:07:48.262Z,19.59
2017-01-18T12:08:48.277Z,19.58
2017-01-18T12:09:47.910Z,19.62
2017-01-18T12:10:47.928Z,19.5
2017-01-18T12:11:48.749Z,19.46
2017-01-18T12:12:48.378Z,19.51
2017-01-18T12:13:48.398Z,19.54
2017-01-18T12:14:48.431Z,19.5
2017-01-18T12:15:48.856Z,19.54
2017-01-18T12:16:48.493Z,19.46
2017-01-18T12:17:48.113Z,19.55
2017-01-18T12:18:48.534Z,19.48
2017-01-18T12:19:48.563Z,19.51
2017-01-18T12:20:48.587Z,19.56
2017-01-18T12:21:49.008Z,19.58
2017-01-18T12:22:48.641Z,19.56
2017-01-18T12:23:48.673Z,19.48
2017-01-18T12:24:48.690Z,19.5
2017-01-18T12:25:49.111Z,19.46
2017-01-18T12:26:48.740Z,19.47
2017-01-18T12:27:48.768Z,19.47
2017-01-18T12:28:49.189Z,19.47
2017-01-18T12:29:49.210Z,19.48
2017-01-18T12:30:49.239Z,19.4
2017-01-18T12:31:48.471Z,19.5
2017-01-18T12:32:48.896Z,19.44
2017-01-18T12:33:48.924Z,19.47
2017-01-18T12:34:49.342Z,19.43
2017-01-18T12:35:48.982Z,19.43
2017-01-18T12:36:49.390Z,19.37
2017-01-18T12:37:49.419Z,19.44
2017-01-18T12:38:48.651Z,19.44
2017-01-18T12:39:48.676Z,19.32
2017-01-18T12:40:49.113Z,19.39
2017-01-18T12:41:49.126Z,19.39
2017-01-18T12:42:49.146Z,19.39
2017-01-18T12:43:49.175Z,19.36
2017-01-18T12:44:49.200Z,19.31
2017-01-18T12:45:49.628Z,19.36
2017-01-18T12:46:48.857Z,19.29
2017-01-18T12:47:49.284Z,19.26
2017-01-18T12:48:49.302Z,19.22
2017-01-18T12:49:49.332Z,19.26
2017-01-18T12:50:48.956Z,19.25
2017-01-18T12:51:49.381Z,19.29
2017-01-18T12:52:49.801Z,19.18
2017-01-18T12:53:49.835Z,19.21
2017-01-18T12:54:49.479Z,19.21
2017-01-18T12:55:49.088Z,19.13